KTVF/TVF METAR and TAF weather

Enter ICAO airport designator
Station Type Date Time Source
KTVF METAR 2021/09/27 05:56 UTC NOAA

KTVF 270556Z AUTO 04006KT 10SM CLR 12/07 A2983 RMK AO2 SLP101 T01220067 10217 20122 53007


Station Type Date Time Source
KTVF Decoded METAR 2021/09/27 05:56 UTC NOAA

Thief River Falls, Thief River Falls Regional Airport, MN, United States (KTVF) 48-04N 096-11W
Sep 27, 2021 - 01:56 AM EDT / 2021.09.27 0556 UTC
Wind: from the NE (040 degrees) at 7 MPH (6 KT):0
Visibility: 10 mile(s):0
Sky conditions: clear
Temperature: 54.0 F (12.2 C)
Dew Point: 44.1 F (6.7 C)
Relative Humidity: 69%
Pressure (altimeter): 29.83 in. Hg (1010 hPa)
Pressure tendency: 0.02 inches (0.7 hPa) higher than three hours ago
ob: KTVF 270556Z AUTO 04006KT 10SM CLR 12/07 A2983 RMK AO2 SLP101 T01220067 10217 20122 53007
cycle: 6

Station Type Date Time Source
KTVF TAF 2021/09/27 06:22 UTC NOAA

TAF KTVF 270520Z 2706/2806 VRB05KT P6SM SKC

Example: see airport list